Terminal Aerodrome Forecast
Issued by NWS North Platte, NE

Home | Current Version | Previous Version | Text Only | Print | Product List | Glossary On
Versions: 1 2 3 4 5 6 7 8 9 10 11 12 13
000
FTUS43 KLBF 181120
TAFVTN
TAF
KVTN 181120Z 1812/1912 23008KT P6SM BKN250
     FM181700 25015G23KT P6SM SCT250
     FM190000 26008KT P6SM SCT250=

USA.gov is the U.S. government's official web portal to all federal, state and local government web resources and services.